Time,TemperatureF,DewpointF,PressureIn,WindDirection,WindDirectionDegrees,WindSpeedMPH,WindSpeedGustMPH,Humidity,HourlyPrecipIn,Conditions,Clouds,dailyrainin,SoftwareType,DateUTC
2013-08-22 00:00:00,68.4,64.7,29.94,NNW,340,0.0,0.0,88,0.00,,SKC,0.00,VWS V14.01,2013-08-22 04:00:00,
2013-08-22 00:01:00,68.4,64.7,29.94,NNW,340,0.0,0.0,88,0.00,,SKC,0.00,VWS V14.01,2013-08-22 04:01:00,
2013-08-22 00:02:00,68.6,64.9,29.94,NNW,340,0.0,0.0,88,0.00,,SKC,0.00,VWS V14.01,2013-08-22 04:02:00,
2013-08-22 00:07:00,68.6,64.9,29.94,NNW,340,0.0,0.0,88,0.00,,SKC,0.00,VWS V14.01,2013-08-22 04:07:00,
2013-08-22 00:12:00,68.6,64.9,29.94,NNW,340,0.0,0.0,88,0.00,,SKC,0.00,VWS V14.01,2013-08-22 04:12:00,
2013-08-22 00:17:00,68.6,64.9,29.93,North,360,0.0,0.0,88,0.00,,SKC,0.00,VWS V14.01,2013-08-22 04:17:00,
2013-08-22 00:22:00,68.6,64.9,29.93,North,9,1.0,4.0,88,0.00,,SKC,0.00,VWS V14.01,2013-08-22 04:22:00,
2013-08-22 00:28:00,68.6,64.6,29.93,North,9,0.0,4.0,87,0.00,,SKC,0.00,VWS V14.01,2013-08-22 04:28:00,
2013-08-22 00:33:00,68.6,64.6,29.93,North,9,0.0,4.0,87,0.00,,SKC,0.00,VWS V14.01,2013-08-22 04:33:00,
2013-08-22 00:38:00,68.4,64.4,29.93,North,9,0.0,4.0,87,0.00,,SKC,0.00,VWS V14.01,2013-08-22 04:38:00,
2013-08-22 00:43:00,68.3,64.3,29.93,North,9,0.0,4.0,87,0.00,,SKC,0.00,VWS V14.01,2013-08-22 04:43:00,
2013-08-22 00:48:00,68.1,64.1,29.94,North,9,0.0,4.0,87,0.00,,SKC,0.00,VWS V14.01,2013-08-22 04:48:00,
2013-08-22 00:53:00,68.1,64.4,29.94,North,9,0.0,4.0,88,0.00,,SKC,0.00,VWS V14.01,2013-08-22 04:53:00,
2013-08-22 00:58:00,67.9,64.2,29.94,North,9,0.0,4.0,88,0.00,,SKC,0.00,VWS V14.01,2013-08-22 04:58:00,
2013-08-22 01:00:00,67.9,64.2,29.95,North,9,0.0,4.0,88,0.00,,SKC,0.00,VWS V14.01,2013-08-22 05:00:00,
2013-08-22 01:03:00,67.8,64.1,29.95,North,9,0.0,0.0,88,0.00,,SKC,0.00,VWS V14.01,2013-08-22 05:03:00,
2013-08-22 01:08:00,67.6,63.9,29.95,North,9,0.0,0.0,88,0.00,,SKC,0.00,VWS V14.01,2013-08-22 05:08:00,
2013-08-22 01:14:00,67.4,63.7,29.95,WNW,300,0.0,0.0,88,0.00,,SKC,0.00,VWS V14.01,2013-08-22 05:14:00,
2013-08-22 01:19:00,67.4,64.1,29.94,WNW,300,0.0,0.0,89,0.00,,SKC,0.00,VWS V14.01,2013-08-22 05:19:00,
2013-08-22 01:24:00,67.4,64.1,29.94,WNW,300,0.0,0.0,89,0.00,,SKC,0.00,VWS V14.01,2013-08-22 05:24:00,
2013-08-22 01:29:00,67.3,64.0,29.94,WNW,300,0.0,0.0,89,0.00,,SKC,0.00,VWS V14.01,2013-08-22 05:29:00,
2013-08-22 01:34:00,67.3,64.0,29.94,WNW,300,0.0,0.0,89,0.00,,SKC,0.00,VWS V14.01,2013-08-22 05:34:00,
2013-08-22 01:39:00,67.1,63.8,29.94,WNW,300,0.0,0.0,89,0.00,,SKC,0.00,VWS V14.01,2013-08-22 05:39:00,
2013-08-22 01:44:00,67.1,63.8,29.94,WNW,300,0.0,0.0,89,0.00,,SKC,0.00,VWS V14.01,2013-08-22 05:44:00,
2013-08-22 01:49:00,67.1,63.8,29.94,WNW,300,0.0,0.0,89,0.00,,SKC,0.00,VWS V14.01,2013-08-22 05:49:00,
2013-08-22 01:54:00,66.9,63.6,29.94,WNW,300,0.0,0.0,89,0.00,,SKC,0.00,VWS V14.01,2013-08-22 05:54:00,
2013-08-22 01:59:00,66.9,63.6,29.94,WNW,300,0.0,0.0,89,0.00,,SKC,0.00,VWS V14.01,2013-08-22 05:59:00,
2013-08-22 02:00:00,66.9,63.6,29.93,WNW,300,0.0,0.0,89,0.00,,SKC,0.00,VWS V14.01,2013-08-22 06:00:00,
2013-08-22 02:32:00,66.3,63.3,29.92,WNW,300,0.0,0.0,90,0.00,,SKC,0.00,VWS V14.01,2013-08-22 06:32:00,
2013-08-22 02:37:00,66.3,63.3,29.92,WNW,300,0.0,0.0,90,0.00,,SKC,0.00,VWS V14.01,2013-08-22 06:37:00,
2013-08-22 02:42:00,66.3,63.3,29.92,WNW,300,0.0,0.0,90,0.00,,SKC,0.00,VWS V14.01,2013-08-22 06:42:00,
2013-08-22 02:48:00,66.1,63.1,29.92,WNW,300,0.0,0.0,90,0.00,,SKC,0.00,VWS V14.01,2013-08-22 06:48:00,
2013-08-22 02:53:00,66.0,63.0,29.92,WNW,300,0.0,0.0,90,0.00,,SKC,0.00,VWS V14.01,2013-08-22 06:53:00,
2013-08-22 02:58:00,65.8,62.8,29.92,WNW,300,0.0,0.0,90,0.00,,SKC,0.00,VWS V14.01,2013-08-22 06:58:00,
2013-08-22 03:00:00,65.6,62.6,29.92,WNW,300,0.0,0.0,90,0.00,,SKC,0.00,VWS V14.01,2013-08-22 07:00:00,
2013-08-22 03:03:00,65.6,62.6,29.92,WNW,300,0.0,0.0,90,0.00,,SKC,0.00,VWS V14.01,2013-08-22 07:03:00,
2013-08-22 03:08:00,65.6,62.6,29.92,WNW,300,0.0,0.0,90,0.00,,SKC,0.00,VWS V14.01,2013-08-22 07:08:00,
2013-08-22 03:13:00,65.5,62.5,29.92,WNW,300,0.0,0.0,90,0.00,,SKC,0.00,VWS V14.01,2013-08-22 07:13:00,
2013-08-22 03:18:00,65.3,62.3,29.92,WNW,300,0.0,0.0,90,0.00,,SKC,0.00,VWS V14.01,2013-08-22 07:18:00,
2013-08-22 03:23:00,65.2,62.2,29.92,WNW,300,0.0,0.0,90,0.00,,SKC,0.00,VWS V14.01,2013-08-22 07:23:00,
2013-08-22 03:29:00,65.0,62.0,29.92,WNW,300,0.0,0.0,90,0.00,,SKC,0.00,VWS V14.01,2013-08-22 07:29:00,
2013-08-22 03:34:00,65.0,62.0,29.92,WNW,300,0.0,0.0,90,0.00,,SKC,0.00,VWS V14.01,2013-08-22 07:34:00,
2013-08-22 03:39:00,64.8,61.8,29.92,WNW,300,0.0,0.0,90,0.00,,SKC,0.00,VWS V14.01,2013-08-22 07:39:00,
2013-08-22 03:44:00,64.8,62.1,29.92,WNW,300,0.0,0.0,91,0.00,,SKC,0.00,VWS V14.01,2013-08-22 07:44:00,
2013-08-22 03:49:00,64.7,62.0,29.92,WNW,300,0.0,0.0,91,0.00,,SKC,0.00,VWS V14.01,2013-08-22 07:49:00,
2013-08-22 03:54:00,64.5,61.8,29.92,WNW,300,0.0,0.0,91,0.00,,SKC,0.00,VWS V14.01,2013-08-22 07:54:00,
2013-08-22 03:59:00,64.3,61.6,29.92,WNW,300,0.0,0.0,91,0.00,,SKC,0.00,VWS V14.01,2013-08-22 07:59:00,
2013-08-22 04:00:00,64.3,61.6,29.92,WNW,300,0.0,0.0,91,0.00,,SKC,0.00,VWS V14.01,2013-08-22 08:00:00,
2013-08-22 04:05:00,64.3,61.6,29.92,WNW,300,0.0,0.0,91,0.00,,SKC,0.00,VWS V14.01,2013-08-22 08:05:00,
2013-08-22 04:10:00,64.3,61.6,29.92,WNW,300,0.0,0.0,91,0.00,,SKC,0.00,VWS V14.01,2013-08-22 08:10:00,
2013-08-22 04:15:00,64.2,61.5,29.93,WNW,300,0.0,0.0,91,0.00,,SKC,0.00,VWS V14.01,2013-08-22 08:15:00,
2013-08-22 04:20:00,64.0,61.3,29.93,WNW,300,0.0,0.0,91,0.00,,SKC,0.00,VWS V14.01,2013-08-22 08:20:00,
2013-08-22 04:25:00,64.0,61.3,29.93,WNW,300,0.0,0.0,91,0.00,,SKC,0.00,VWS V14.01,2013-08-22 08:25:00,
2013-08-22 04:30:00,63.9,61.2,29.92,WNW,300,0.0,0.0,91,0.00,,SKC,0.00,VWS V14.01,2013-08-22 08:30:00,
2013-08-22 04:35:00,63.9,61.2,29.92,WNW,300,0.0,0.0,91,0.00,,SKC,0.00,VWS V14.01,2013-08-22 08:35:00,
2013-08-22 04:40:00,63.9,61.2,29.92,WNW,300,0.0,0.0,91,0.00,,SKC,0.00,VWS V14.01,2013-08-22 08:40:00,
2013-08-22 04:46:00,63.7,61.3,29.92,WNW,300,0.0,0.0,92,0.00,,SKC,0.00,VWS V14.01,2013-08-22 08:46:00,
2013-08-22 04:51:00,63.7,61.3,29.92,WNW,300,0.0,0.0,92,0.00,,SKC,0.00,VWS V14.01,2013-08-22 08:51:00,
2013-08-22 04:56:00,63.7,61.3,29.92,WNW,300,0.0,0.0,92,0.00,,SKC,0.00,VWS V14.01,2013-08-22 08:56:00,
2013-08-22 05:00:00,63.7,61.0,29.92,WNW,300,0.0,0.0,91,0.00,,SKC,0.00,VWS V14.01,2013-08-22 09:00:00,
2013-08-22 05:01:00,63.7,61.0,29.92,WNW,300,0.0,0.0,91,0.00,,SKC,0.00,VWS V14.01,2013-08-22 09:01:00,
2013-08-22 05:06:00,63.7,61.3,29.92,WNW,300,0.0,0.0,92,0.00,,SKC,0.00,VWS V14.01,2013-08-22 09:06:00,
2013-08-22 05:11:00,63.5,61.1,29.92,WNW,300,0.0,0.0,92,0.00,,SKC,0.00,VWS V14.01,2013-08-22 09:11:00,
2013-08-22 05:16:00,63.5,61.1,29.92,WNW,300,0.0,0.0,92,0.00,,SKC,0.00,VWS V14.01,2013-08-22 09:16:00,
2013-08-22 05:21:00,63.5,61.1,29.92,WNW,300,0.0,0.0,92,0.00,,SKC,0.00,VWS V14.01,2013-08-22 09:21:00,
2013-08-22 05:26:00,63.4,61.0,29.92,WNW,300,0.0,0.0,92,0.00,,SKC,0.00,VWS V14.01,2013-08-22 09:26:00,
2013-08-22 05:32:00,63.2,60.8,29.91,WNW,300,0.0,0.0,92,0.00,,SKC,0.00,VWS V14.01,2013-08-22 09:32:00,
2013-08-22 05:37:00,63.2,60.8,29.91,WNW,300,0.0,0.0,92,0.00,,SKC,0.00,VWS V14.01,2013-08-22 09:37:00,
2013-08-22 05:42:00,63.1,60.7,29.91,WNW,300,0.0,0.0,92,0.00,,SKC,0.00,VWS V14.01,2013-08-22 09:42:00,
2013-08-22 05:47:00,63.2,60.8,29.91,WNW,300,0.0,0.0,92,0.00,,SKC,0.00,VWS V14.01,2013-08-22 09:47:00,
2013-08-22 05:52:00,63.1,60.7,29.91,WNW,300,0.0,0.0,92,0.00,,SKC,0.00,VWS V14.01,2013-08-22 09:52:00,
2013-08-22 05:57:00,63.1,60.7,29.91,WNW,300,0.0,0.0,92,0.00,,SKC,0.00,VWS V14.01,2013-08-22 09:57:00,
2013-08-22 06:00:00,63.1,60.7,29.91,WNW,300,0.0,0.0,92,0.00,,SKC,0.00,VWS V14.01,2013-08-22 10:00:00,
2013-08-22 06:02:00,63.1,60.7,29.91,WNW,300,0.0,0.0,92,0.00,,SKC,0.00,VWS V14.01,2013-08-22 10:02:00,
2013-08-22 06:07:00,63.1,60.7,29.91,WNW,300,0.0,0.0,92,0.00,,SKC,0.00,VWS V14.01,2013-08-22 10:07:00,
2013-08-22 06:12:00,63.1,60.7,29.91,WNW,300,0.0,0.0,92,0.00,,SKC,0.00,VWS V14.01,2013-08-22 10:12:00,
2013-08-22 06:17:00,63.1,60.7,29.91,WNW,300,0.0,0.0,92,0.00,,SKC,0.00,VWS V14.01,2013-08-22 10:17:00,
2013-08-22 06:23:00,63.1,60.7,29.91,WNW,300,0.0,0.0,92,0.00,,SKC,0.00,VWS V14.01,2013-08-22 10:23:00,
2013-08-22 06:28:00,62.9,60.5,29.91,WNW,300,0.0,0.0,92,0.00,,SKC,0.00,VWS V14.01,2013-08-22 10:28:00,
2013-08-22 06:33:00,62.9,60.5,29.92,WNW,300,0.0,0.0,92,0.00,,SKC,0.00,VWS V14.01,2013-08-22 10:33:00,
2013-08-22 06:38:00,62.7,60.3,29.92,WNW,300,0.0,0.0,92,0.00,,SKC,0.00,VWS V14.01,2013-08-22 10:38:00,
2013-08-22 06:43:00,62.9,60.5,29.92,WNW,300,0.0,0.0,92,0.00,,SKC,0.00,VWS V14.01,2013-08-22 10:43:00,
2013-08-22 06:48:00,62.9,60.5,29.92,WNW,300,0.0,0.0,92,0.00,,SKC,0.00,VWS V14.01,2013-08-22 10:48:00,
2013-08-22 07:00:00,63.1,60.7,29.92,WNW,300,0.0,0.0,92,0.00,,SKC,0.00,VWS V14.01,2013-08-22 11:00:00,
2013-08-22 08:00:00,64.3,61.9,29.92,WNW,300,0.0,0.0,92,0.00,,SKC,0.00,VWS V14.01,2013-08-22 12:00:00,
2013-08-22 08:27:00,66.0,63.3,29.93,WNW,300,0.0,2.0,91,0.00,,SKC,0.00,VWS V14.01,2013-08-22 12:27:00,
2013-08-22 08:32:00,66.3,63.6,29.93,WNW,300,0.0,2.0,91,0.00,,SKC,0.00,VWS V14.01,2013-08-22 12:32:00,
2013-08-22 08:37:00,66.4,63.4,29.93,WNW,300,0.0,2.0,90,0.00,,SKC,0.00,VWS V14.01,2013-08-22 12:37:00,
2013-08-22 08:42:00,66.6,63.3,29.93,WNW,300,4.0,4.0,89,0.00,,SKC,0.00,VWS V14.01,2013-08-22 12:42:00,
2013-08-22 08:48:00,66.9,63.6,29.94,WNW,300,0.0,5.0,89,0.00,,SKC,0.00,VWS V14.01,2013-08-22 12:48:00,
2013-08-22 08:53:00,67.3,63.6,29.94,WNW,300,0.0,5.0,88,0.00,,SKC,0.00,VWS V14.01,2013-08-22 12:53:00,
2013-08-22 08:58:00,67.6,63.6,29.94,WNW,300,0.0,5.0,87,0.00,,SKC,0.00,VWS V14.01,2013-08-22 12:58:00,
2013-08-22 09:00:00,67.9,64.2,29.94,WNW,300,0.0,5.0,88,0.00,,SKC,0.00,VWS V14.01,2013-08-22 13:00:00,
2013-08-22 09:05:00,68.3,64.0,29.94,North,9,0.0,5.0,86,0.00,,SKC,0.00,VWS V14.01,2013-08-22 13:05:00,
2013-08-22 09:10:00,68.4,63.7,29.94,NE,55,0.0,6.0,85,0.00,,SKC,0.00,VWS V14.01,2013-08-22 13:10:00,
2013-08-22 09:16:00,68.8,64.1,29.94,NNW,338,0.0,6.0,85,0.00,,SKC,0.00,VWS V14.01,2013-08-22 13:16:00,
2013-08-22 09:21:00,69.3,64.6,29.94,NNW,338,0.0,6.0,85,0.00,,SKC,0.00,VWS V14.01,2013-08-22 13:21:00,
2013-08-22 09:26:00,69.9,64.8,29.94,NNW,338,0.0,6.0,84,0.00,,SKC,0.00,VWS V14.01,2013-08-22 13:26:00,
2013-08-22 09:31:00,70.3,64.6,29.94,WNW,302,0.0,6.0,82,0.00,,SKC,0.00,VWS V14.01,2013-08-22 13:31:00,
2013-08-22 09:36:00,70.6,64.8,29.94,ENE,78,3.0,6.0,82,0.00,,SKC,0.00,VWS V14.01,2013-08-22 13:36:00,
2013-08-22 09:41:00,70.9,65.1,29.94,NNW,328,0.0,6.0,82,0.00,,SKC,0.00,VWS V14.01,2013-08-22 13:41:00,
2013-08-22 09:46:00,71.6,65.5,29.93,NNW,328,0.0,6.0,81,0.00,,SKC,0.00,VWS V14.01,2013-08-22 13:46:00,
2013-08-22 09:51:00,72.0,65.1,29.93,NNW,328,0.0,6.0,79,0.00,,SKC,0.00,VWS V14.01,2013-08-22 13:51:00,
2013-08-22 09:56:00,72.1,65.2,29.93,WNW,298,0.0,7.0,79,0.00,,SKC,0.00,VWS V14.01,2013-08-22 13:56:00,
2013-08-22 10:00:00,72.7,65.4,29.92,WNW,298,0.0,7.0,78,0.00,,SKC,0.00,VWS V14.01,2013-08-22 14:00:00,
2013-08-22 10:02:00,72.8,65.6,29.92,WNW,298,0.0,0.0,78,0.00,,SKC,0.00,VWS V14.01,2013-08-22 14:02:00,
2013-08-22 10:07:00,73.2,65.2,29.92,NNW,344,0.0,6.0,76,0.00,,SKC,0.00,VWS V14.01,2013-08-22 14:07:00,
2013-08-22 10:12:00,73.5,65.1,29.92,NNW,344,0.0,6.0,75,0.00,,SKC,0.00,VWS V14.01,2013-08-22 14:12:00,
2013-08-22 10:17:00,73.7,65.3,29.92,West,275,0.0,6.0,75,0.00,,SKC,0.00,VWS V14.01,2013-08-22 14:17:00,
2013-08-22 10:22:00,73.5,65.5,29.92,NW,323,0.0,6.0,76,0.00,,SKC,0.00,VWS V14.01,2013-08-22 14:22:00,
2013-08-22 10:27:00,74.0,66.0,29.92,NW,323,0.0,6.0,76,0.00,,SKC,0.00,VWS V14.01,2013-08-22 14:27:00,
2013-08-22 10:32:00,74.4,66.3,29.92,ENE,71,0.0,6.0,76,0.00,,SKC,0.00,VWS V14.01,2013-08-22 14:32:00,
2013-08-22 10:37:00,74.9,66.1,29.92,NW,315,4.0,6.0,74,0.00,,SKC,0.00,VWS V14.01,2013-08-22 14:37:00,
2013-08-22 10:42:00,74.9,66.1,29.92,NW,315,7.0,7.0,74,0.00,,SKC,0.00,VWS V14.01,2013-08-22 14:42:00,
2013-08-22 10:48:00,74.7,65.9,29.92,North,355,0.0,7.0,74,0.00,,SKC,0.00,VWS V14.01,2013-08-22 14:48:00,
2013-08-22 10:53:00,74.7,66.3,29.92,North,355,0.0,7.0,75,0.00,,SKC,0.00,VWS V14.01,2013-08-22 14:53:00,
2013-08-22 10:58:00,75.3,66.8,29.92,ENE,75,0.0,7.0,75,0.00,,SKC,0.00,VWS V14.01,2013-08-22 14:58:00,
2013-08-22 11:00:00,75.4,66.9,29.93,NNE,18,0.0,7.0,75,0.00,,SKC,0.00,VWS V14.01,2013-08-22 15:00:00,
2013-08-22 11:03:00,75.6,66.3,29.93,NNE,18,3.0,4.0,73,0.00,,SKC,0.00,VWS V14.01,2013-08-22 15:03:00,
2013-08-22 11:08:00,75.8,66.5,29.93,NNE,19,0.0,5.0,73,0.00,,SKC,0.00,VWS V14.01,2013-08-22 15:08:00,
2013-08-22 11:13:00,75.8,66.5,29.93,NNE,19,0.0,5.0,73,0.00,,SKC,0.00,VWS V14.01,2013-08-22 15:13:00,
2013-08-22 11:18:00,75.6,66.7,29.93,NE,40,0.0,7.0,74,0.00,,SKC,0.00,VWS V14.01,2013-08-22 15:18:00,
2013-08-22 11:23:00,75.6,66.7,29.93,NNW,340,0.0,7.0,74,0.00,,SKC,0.00,VWS V14.01,2013-08-22 15:23:00,
2013-08-22 11:28:00,75.6,66.7,29.93,NNW,340,0.0,7.0,74,0.00,,SKC,0.00,VWS V14.01,2013-08-22 15:28:00,
2013-08-22 11:34:00,76.1,66.8,29.93,East,84,0.0,7.0,73,0.00,,SKC,0.00,VWS V14.01,2013-08-22 15:34:00,
2013-08-22 11:39:00,76.1,66.8,29.93,East,84,0.0,7.0,73,0.00,,SKC,0.00,VWS V14.01,2013-08-22 15:39:00,
2013-08-22 11:44:00,76.1,66.4,29.93,East,82,6.0,8.0,72,0.00,,SKC,0.00,VWS V14.01,2013-08-22 15:44:00,
2013-08-22 11:49:00,75.8,66.9,29.94,ENE,71,0.0,8.0,74,0.00,,SKC,0.00,VWS V14.01,2013-08-22 15:49:00,
2013-08-22 11:54:00,75.6,67.1,29.94,ENE,71,0.0,8.0,75,0.00,,SKC,0.00,VWS V14.01,2013-08-22 15:54:00,
2013-08-22 11:59:00,75.3,66.4,29.94,SE,130,5.0,11.0,74,0.00,,SKC,0.00,VWS V14.01,2013-08-22 15:59:00,
2013-08-22 12:00:00,75.1,66.6,29.94,East,98,4.0,11.0,75,0.00,,SKC,0.00,VWS V14.01,2013-08-22 16:00:00,
2013-08-22 12:04:00,74.2,66.5,29.94,ESE,121,0.0,5.0,77,0.00,,SKC,0.00,VWS V14.01,2013-08-22 16:04:00,
2013-08-22 12:09:00,73.2,66.3,29.94,ENE,78,0.0,6.0,79,0.00,,SKC,0.00,VWS V14.01,2013-08-22 16:09:00,
2013-08-22 12:15:00,72.5,65.6,29.94,East,94,2.0,6.0,79,0.00,,SKC,0.00,VWS V14.01,2013-08-22 16:15:00,
2013-08-22 12:20:00,71.8,65.3,29.94,East,98,0.0,6.0,80,0.00,,SKC,0.00,VWS V14.01,2013-08-22 16:20:00,
2013-08-22 12:25:00,71.6,65.8,29.94,East,98,0.0,6.0,82,0.00,,SKC,0.00,VWS V14.01,2013-08-22 16:25:00,
2013-08-22 12:30:00,71.5,65.7,29.94,East,98,0.0,6.0,82,0.00,,SKC,0.00,VWS V14.01,2013-08-22 16:30:00,
2013-08-22 12:35:00,71.6,65.8,29.94,East,98,0.0,6.0,82,0.00,,SKC,0.00,VWS V14.01,2013-08-22 16:35:00,
2013-08-22 12:40:00,71.8,66.0,29.94,East,98,0.0,6.0,82,0.00,,SKC,0.00,VWS V14.01,2013-08-22 16:40:00,
2013-08-22 12:45:00,72.0,66.6,29.93,East,98,0.0,6.0,83,0.00,,SKC,0.00,VWS V14.01,2013-08-22 16:45:00,
2013-08-22 12:50:00,72.1,66.7,29.93,East,98,0.0,6.0,83,0.00,,SKC,0.00,VWS V14.01,2013-08-22 16:50:00,
2013-08-22 12:56:00,72.5,67.1,29.93,East,98,0.0,6.0,83,0.00,,SKC,0.00,VWS V14.01,2013-08-22 16:56:00,
2013-08-22 13:00:00,72.7,66.9,29.93,East,98,0.0,6.0,82,0.00,,SKC,0.00,VWS V14.01,2013-08-22 17:00:00,
2013-08-22 13:01:00,72.7,66.9,29.93,East,98,0.0,0.0,82,0.00,,SKC,0.00,VWS V14.01,2013-08-22 17:01:00,
2013-08-22 13:06:00,72.8,67.0,29.93,East,98,0.0,0.0,82,0.00,,SKC,0.00,VWS V14.01,2013-08-22 17:06:00,
2013-08-22 13:11:00,73.0,67.2,29.93,East,98,0.0,0.0,82,0.00,,SKC,0.00,VWS V14.01,2013-08-22 17:11:00,
2013-08-22 13:16:00,73.3,67.5,29.92,East,98,0.0,1.0,82,0.00,,SKC,0.00,VWS V14.01,2013-08-22 17:16:00,
2013-08-22 13:21:00,73.5,67.3,29.92,East,98,0.0,1.0,81,0.00,,SKC,0.00,VWS V14.01,2013-08-22 17:21:00,
2013-08-22 13:26:00,73.9,67.7,29.92,North,11,0.0,5.0,81,0.00,,SKC,0.00,VWS V14.01,2013-08-22 17:26:00,
2013-08-22 13:31:00,74.0,67.8,29.91,North,11,0.0,5.0,81,0.00,,SKC,0.00,VWS V14.01,2013-08-22 17:31:00,
2013-08-22 13:37:00,74.2,68.0,29.91,North,11,0.0,5.0,81,0.00,,SKC,0.00,VWS V14.01,2013-08-22 17:37:00,
2013-08-22 13:42:00,74.4,68.2,29.91,North,11,2.0,5.0,81,0.00,,SKC,0.00,VWS V14.01,2013-08-22 17:42:00,
2013-08-22 13:47:00,74.4,67.8,29.91,North,11,0.0,5.0,80,0.00,,SKC,0.00,VWS V14.01,2013-08-22 17:47:00,
2013-08-22 13:52:00,74.4,67.8,29.91,North,11,0.0,5.0,80,0.00,,SKC,0.00,VWS V14.01,2013-08-22 17:52:00,
2013-08-22 13:57:00,74.4,67.5,29.91,North,11,0.0,5.0,79,0.00,,SKC,0.00,VWS V14.01,2013-08-22 17:57:00,
2013-08-22 14:00:00,74.6,66.9,29.90,North,11,0.0,5.0,77,0.00,,SKC,0.00,VWS V14.01,2013-08-22 18:00:00,
2013-08-22 14:02:00,74.6,66.9,29.90,North,11,0.0,0.0,77,0.00,,SKC,0.00,VWS V14.01,2013-08-22 18:02:00,
2013-08-22 14:07:00,74.7,65.9,29.90,North,11,0.0,0.0,74,0.00,,SKC,0.00,VWS V14.01,2013-08-22 18:07:00,
2013-08-22 14:13:00,74.7,65.5,29.90,North,11,3.0,3.0,73,0.00,,SKC,0.00,VWS V14.01,2013-08-22 18:13:00,
2013-08-22 14:18:00,74.9,65.3,29.90,North,355,0.0,6.0,72,0.00,,SKC,0.00,VWS V14.01,2013-08-22 18:18:00,
2013-08-22 14:23:00,75.1,65.5,29.90,North,355,0.0,6.0,72,0.00,,SKC,0.00,VWS V14.01,2013-08-22 18:23:00,
2013-08-22 14:28:00,75.1,64.7,29.90,NNW,348,0.0,6.0,70,0.00,,SKC,0.00,VWS V14.01,2013-08-22 18:28:00,
2013-08-22 14:33:00,75.3,65.3,29.89,NNW,348,0.0,6.0,71,0.00,,SKC,0.00,VWS V14.01,2013-08-22 18:33:00,
2013-08-22 14:38:00,75.4,65.8,29.89,NNW,348,5.0,6.0,72,0.00,,SKC,0.00,VWS V14.01,2013-08-22 18:38:00,
2013-08-22 14:43:00,75.6,65.9,29.89,NNE,30,0.0,6.0,72,0.00,,SKC,0.00,VWS V14.01,2013-08-22 18:43:00,
2013-08-22 14:48:00,76.1,66.4,29.89,NW,326,5.0,6.0,72,0.00,,SKC,0.00,VWS V14.01,2013-08-22 18:48:00,
2013-08-22 14:53:00,77.0,66.9,29.89,NNW,329,6.0,6.0,71,0.00,,SKC,0.00,VWS V14.01,2013-08-22 18:53:00,
2013-08-22 14:59:00,77.6,67.5,29.89,North,355,0.0,6.0,71,0.00,,SKC,0.00,VWS V14.01,2013-08-22 18:59:00,
2013-08-22 15:00:00,77.9,67.3,29.88,NNE,22,3.0,6.0,70,0.00,,SKC,0.00,VWS V14.01,2013-08-22 19:00:00,
2013-08-22 15:04:00,78.3,67.3,29.88,NNE,22,0.0,3.0,69,0.00,,SKC,0.00,VWS V14.01,2013-08-22 19:04:00,
2013-08-22 15:09:00,79.0,68.0,29.88,NNW,348,4.0,8.0,69,0.00,,SKC,0.00,VWS V14.01,2013-08-22 19:09:00,
2013-08-22 15:14:00,79.4,67.9,29.88,North,350,0.0,8.0,68,0.00,,SKC,0.00,VWS V14.01,2013-08-22 19:14:00,
2013-08-22 15:19:00,79.2,67.3,29.88,NNE,17,0.0,8.0,67,0.00,,SKC,0.00,VWS V14.01,2013-08-22 19:19:00,
2013-08-22 15:24:00,79.6,68.5,29.88,NNW,329,0.0,9.0,69,0.00,,SKC,0.00,VWS V14.01,2013-08-22 19:24:00,
2013-08-22 15:29:00,79.8,68.3,29.88,NNW,327,0.0,9.0,68,0.00,,SKC,0.00,VWS V14.01,2013-08-22 19:29:00,
2013-08-22 15:34:00,80.1,68.6,29.87,NNW,327,0.0,9.0,68,0.00,,SKC,0.00,VWS V14.01,2013-08-22 19:34:00,
2013-08-22 15:39:00,80.7,69.6,29.87,West,271,1.0,9.0,69,0.00,,SKC,0.00,VWS V14.01,2013-08-22 19:39:00,
2013-08-22 15:44:00,80.7,68.7,29.87,NNW,329,0.0,9.0,67,0.00,,SKC,0.00,VWS V14.01,2013-08-22 19:44:00,
2013-08-22 15:50:00,80.5,69.0,29.86,NW,318,0.0,9.0,68,0.00,,SKC,0.00,VWS V14.01,2013-08-22 19:50:00,
2013-08-22 15:55:00,80.9,68.5,29.86,NNE,30,0.0,9.0,66,0.00,,SKC,0.00,VWS V14.01,2013-08-22 19:55:00,
2013-08-22 16:00:00,80.9,68.5,29.86,NNW,344,5.0,9.0,66,0.00,,SKC,0.00,VWS V14.01,2013-08-22 20:00:00,
2013-08-22 16:05:00,80.9,69.4,29.86,North,5,0.0,7.0,68,0.00,,SKC,0.00,VWS V14.01,2013-08-22 20:05:00,
2013-08-22 16:10:00,80.9,68.9,29.86,NE,42,0.0,7.0,67,0.00,,SKC,0.00,VWS V14.01,2013-08-22 20:10:00,
2013-08-22 16:15:00,80.7,69.6,29.86,NW,313,4.0,8.0,69,0.00,,SKC,0.00,VWS V14.01,2013-08-22 20:15:00,
2013-08-22 16:20:00,81.1,69.6,29.86,NNW,344,0.0,8.0,68,0.00,,SKC,0.00,VWS V14.01,2013-08-22 20:20:00,
2013-08-22 17:00:00,80.9,68.5,29.86,NNW,341,0.0,9.0,66,0.00,,SKC,0.00,VWS V14.01,2013-08-22 21:00:00,